createdAt,value
2017-08-22T00:00:30.943Z,13.8
2017-08-22T00:01:30.142Z,13.8
2017-08-22T00:02:29.712Z,13.8
2017-08-22T00:03:28.725Z,13.8
2017-08-22T00:04:28.304Z,13.8
2017-08-22T00:05:27.382Z,13.8
2017-08-22T00:06:26.724Z,13.8
2017-08-22T00:06:57.108Z,13.8
2017-08-22T00:07:27.484Z,13.7
2017-08-22T00:07:57.879Z,13.7
2017-08-22T00:08:28.387Z,13.7
2017-08-22T00:09:24.558Z,13.7
2017-08-22T00:10:23.764Z,13.7
2017-08-22T00:12:21.833Z,13.7
2017-08-22T00:13:21.406Z,13.7
2017-08-22T00:14:20.600Z,13.7
2017-08-22T00:15:19.804Z,13.6
2017-08-22T00:16:18.989Z,13.6
2017-08-22T00:17:18.320Z,13.6
2017-08-22T00:18:17.518Z,13.6
2017-08-22T00:19:16.712Z,13.6
2017-08-22T00:20:16.303Z,13.6
2017-08-22T00:21:15.374Z,13.6
2017-08-22T00:22:14.452Z,13.6
2017-08-22T00:23:13.631Z,13.6
2017-08-22T00:24:12.708Z,13.6
2017-08-22T00:25:12.285Z,13.6
2017-08-22T00:26:11.488Z,13.5
2017-08-22T00:27:10.668Z,13.6
2017-08-22T00:28:09.860Z,13.6
2017-08-22T00:29:08.956Z,13.6
2017-08-22T00:30:08.549Z,13.5
2017-08-22T00:31:07.748Z,13.5
2017-08-22T00:32:06.824Z,13.5
2017-08-22T00:33:06.014Z,13.5
2017-08-22T00:34:05.714Z,13.5
2017-08-22T00:35:04.801Z,13.5
2017-08-22T00:36:03.893Z,13.5
2017-08-22T00:37:03.084Z,13.5
2017-08-22T00:38:02.541Z,13.5
2017-08-22T00:39:01.623Z,13.4
2017-08-22T00:40:00.700Z,13.4
2017-08-22T00:41:00.153Z,13.4
2017-08-22T00:41:59.617Z,13.4
2017-08-22T00:42:58.817Z,13.4
2017-08-22T00:43:57.797Z,13.4
2017-08-22T00:44:57.142Z,13.3
2017-08-22T00:45:56.483Z,13.3
2017-08-22T00:46:55.324Z,13.3
2017-08-22T00:47:55.027Z,13.3
2017-08-22T00:48:54.230Z,13.3
2017-08-22T00:49:53.422Z,13.2
2017-08-22T00:51:52.013Z,13.2
2017-08-22T00:52:51.209Z,13.2
2017-08-22T00:53:50.408Z,13.2
2017-08-22T00:54:49.365Z,13.1
2017-08-22T00:55:48.941Z,13.1
2017-08-22T00:56:48.124Z,13.1
2017-08-22T00:57:47.321Z,13.1
2017-08-22T00:58:46.392Z,13.1
2017-08-22T00:59:45.842Z,13.1
2017-08-22T01:00:44.801Z,13
2017-08-22T01:01:44.010Z,13
2017-08-22T01:02:14.395Z,13
2017-08-22T01:05:41.046Z,13
2017-08-22T01:06:40.619Z,13
2017-08-22T01:07:39.588Z,12.9
2017-08-22T01:08:38.790Z,12.9
2017-08-22T01:09:37.871Z,12.9
2017-08-22T01:10:37.454Z,12.9
2017-08-22T01:11:36.524Z,12.9
2017-08-22T01:12:35.599Z,12.9
2017-08-22T01:13:35.058Z,12.9
2017-08-22T01:14:34.013Z,12.9
2017-08-22T01:15:33.593Z,12.9
2017-08-22T01:16:32.788Z,12.9
2017-08-22T01:17:31.867Z,12.9
2017-08-22T01:18:31.204Z,12.9
2017-08-22T01:19:30.548Z,12.8
2017-08-22T01:20:29.503Z,12.8
2017-08-22T01:21:28.753Z,12.8
2017-08-22T01:22:27.945Z,12.8
2017-08-22T01:23:27.521Z,12.8
2017-08-22T01:24:26.607Z,12.8
2017-08-22T01:25:25.804Z,12.8
2017-08-22T01:26:24.994Z,12.8
2017-08-22T01:27:24.184Z,12.7
2017-08-22T01:28:23.531Z,12.7
2017-08-22T01:29:22.722Z,12.7
2017-08-22T01:30:21.788Z,12.7
2017-08-22T01:31:20.998Z,12.7
2017-08-22T01:31:51.390Z,12.7
2017-08-22T01:32:21.890Z,12.7
2017-08-22T01:32:52.268Z,12.7
2017-08-22T01:33:22.657Z,12.7
2017-08-22T01:34:18.708Z,12.7
2017-08-22T01:35:18.168Z,12.7
2017-08-22T01:36:17.248Z,12.7
2017-08-22T01:37:16.329Z,12.7
2017-08-22T01:38:15.909Z,12.7
2017-08-22T01:39:15.099Z,12.7
2017-08-22T01:40:14.057Z,12.7
2017-08-22T01:41:13.005Z,12.7
2017-08-22T01:42:12.694Z,12.7
2017-08-22T01:43:12.026Z,12.7
2017-08-22T01:44:11.216Z,12.7
2017-08-22T01:45:10.408Z,12.7
2017-08-22T01:46:09.507Z,12.7
2017-08-22T01:47:08.707Z,12.7
2017-08-22T01:48:08.282Z,12.7
2017-08-22T01:50:06.256Z,12.7
2017-08-22T01:51:05.849Z,12.7
2017-08-22T01:52:05.053Z,12.7
2017-08-22T01:53:04.141Z,12.7
2017-08-22T01:55:02.610Z,12.7
2017-08-22T01:56:01.685Z,12.7
2017-08-22T01:57:00.888Z,12.7
2017-08-22T01:58:00.466Z,12.7
2017-08-22T01:58:59.417Z,12.7
2017-08-22T01:59:58.639Z,12.6
2017-08-22T02:00:58.103Z,12.6
2017-08-22T02:01:57.296Z,12.6
2017-08-22T02:02:56.367Z,12.6
2017-08-22T02:03:55.435Z,12.6
2017-08-22T02:04:55.001Z,12.6
2017-08-22T02:05:54.200Z,12.5
2017-08-22T02:06:53.399Z,12.5
2017-08-22T02:07:52.595Z,12.5
2017-08-22T02:08:51.775Z,12.5
2017-08-22T02:09:51.032Z,12.5
2017-08-22T02:10:50.107Z,12.5
2017-08-22T02:11:49.289Z,12.5
2017-08-22T02:12:48.862Z,12.5
2017-08-22T02:13:48.061Z,12.5
2017-08-22T02:14:47.129Z,12.5
2017-08-22T02:15:46.603Z,12.5
2017-08-22T02:16:45.807Z,12.5
2017-08-22T02:17:44.872Z,12.5
2017-08-22T02:18:44.073Z,12.4
2017-08-22T02:19:43.143Z,12.5
2017-08-22T02:20:42.357Z,12.4
2017-08-22T02:21:41.945Z,12.4
2017-08-22T02:22:41.143Z,12.4
2017-08-22T02:23:40.330Z,12.4
2017-08-22T02:25:38.789Z,12.4
2017-08-22T02:26:37.750Z,12.4
2017-08-22T02:27:36.824Z,12.4
2017-08-22T02:28:36.407Z,12.4
2017-08-22T02:29:35.598Z,12.4
2017-08-22T02:30:34.785Z,12.4
2017-08-22T02:31:33.981Z,12.4
2017-08-22T02:32:33.093Z,12.4
2017-08-22T02:33:32.162Z,12.4
2017-08-22T02:34:31.626Z,12.3
2017-08-22T02:35:30.697Z,12.3
2017-08-22T02:37:29.040Z,12.3
2017-08-22T02:38:28.740Z,12.3
2017-08-22T02:39:27.699Z,12.3
2017-08-22T02:40:26.900Z,12.3
2017-08-22T02:41:25.986Z,12.3
2017-08-22T02:42:25.176Z,12.3
2017-08-22T02:43:24.762Z,12.3
2017-08-22T02:44:23.851Z,12.3
2017-08-22T02:45:22.921Z,12.3
2017-08-22T02:46:22.499Z,12.3
2017-08-22T02:47:21.232Z,12.3
2017-08-22T02:48:20.937Z,12.3
2017-08-22T02:49:20.019Z,12.3
2017-08-22T02:50:18.975Z,12.3
2017-08-22T02:51:17.939Z,12.3
2017-08-22T02:52:17.514Z,12.3
2017-08-22T02:53:16.597Z,12.3
2017-08-22T02:54:15.804Z,12.2
2017-08-22T02:55:15.015Z,12.2
2017-08-22T02:56:14.223Z,12.2
2017-08-22T02:57:13.294Z,12.2
2017-08-22T02:58:12.882Z,12.2
2017-08-22T02:59:12.229Z,12.2
2017-08-22T03:00:11.175Z,12.2
2017-08-22T03:01:10.760Z,12.2
2017-08-22T03:02:09.722Z,12.1
2017-08-22T03:03:08.905Z,12.1
2017-08-22T03:04:07.962Z,12.1
2017-08-22T03:05:07.540Z,12.1
2017-08-22T03:06:06.743Z,12.1
2017-08-22T03:07:05.695Z,12.1
2017-08-22T03:08:04.877Z,12.1
2017-08-22T03:09:03.955Z,12.1
2017-08-22T03:10:03.652Z,12
2017-08-22T03:11:02.736Z,12
2017-08-22T03:12:01.828Z,12
2017-08-22T03:13:00.904Z,12
2017-08-22T03:14:00.483Z,12
2017-08-22T03:14:59.569Z,12
2017-08-22T03:15:58.900Z,12
2017-08-22T03:16:57.978Z,12
2017-08-22T03:17:57.184Z,12
2017-08-22T03:18:56.385Z,12
2017-08-22T03:19:26.775Z,12
2017-08-22T03:20:54.648Z,11.9
2017-08-22T03:21:53.721Z,11.9
2017-08-22T03:23:52.389Z,12
2017-08-22T03:24:51.460Z,12
2017-08-22T03:25:50.649Z,12
2017-08-22T03:26:49.907Z,12
2017-08-22T03:27:49.112Z,12
2017-08-22T03:28:48.311Z,11.9
2017-08-22T03:29:47.910Z,11.9
2017-08-22T03:30:47.007Z,11.9
2017-08-22T03:31:46.122Z,11.9
2017-08-22T03:32:45.190Z,11.9
2017-08-22T03:33:44.391Z,11.9
2017-08-22T03:34:43.607Z,11.9
2017-08-22T03:35:42.821Z,11.9
2017-08-22T03:36:42.004Z,11.9
2017-08-22T03:37:41.186Z,11.9
2017-08-22T03:38:40.637Z,11.9
2017-08-22T03:39:39.721Z,11.9
2017-08-22T03:40:39.179Z,11.9
2017-08-22T03:41:38.133Z,11.9
2017-08-22T03:42:37.710Z,11.9
2017-08-22T03:43:36.651Z,11.9
2017-08-22T03:44:35.851Z,11.9
2017-08-22T03:45:34.799Z,11.9
2017-08-22T03:46:34.384Z,11.9
2017-08-22T03:47:33.572Z,11.9
2017-08-22T03:48:32.760Z,11.9
2017-08-22T03:49:31.831Z,11.9
2017-08-22T03:50:31.035Z,11.9
2017-08-22T03:51:30.228Z,11.9
2017-08-22T03:52:29.294Z,11.9
2017-08-22T03:53:28.914Z,11.9
2017-08-22T03:54:28.119Z,11.9
2017-08-22T03:55:27.218Z,11.9
2017-08-22T03:56:26.189Z,11.9
2017-08-22T03:57:25.273Z,11.9
2017-08-22T03:58:24.855Z,11.9
2017-08-22T03:59:23.936Z,11.9
2017-08-22T04:00:23.132Z,11.9
2017-08-22T04:00:53.640Z,11.9
2017-08-22T04:02:21.519Z,11.9
2017-08-22T04:03:20.712Z,11.8
2017-08-22T04:04:19.791Z,11.9
2017-08-22T04:05:19.259Z,11.9
2017-08-22T04:06:18.340Z,11.9
2017-08-22T04:07:17.936Z,11.9
2017-08-22T04:08:16.902Z,11.8
2017-08-22T04:09:16.105Z,11.8
2017-08-22T04:10:15.297Z,11.8
2017-08-22T04:11:14.494Z,11.8
2017-08-22T04:11:45.003Z,11.8
2017-08-22T04:12:15.277Z,11.8
2017-08-22T04:12:45.668Z,11.8
2017-08-22T04:14:12.197Z,11.8
2017-08-22T04:15:11.389Z,11.8
2017-08-22T04:16:10.575Z,11.8
2017-08-22T04:17:09.754Z,11.8
2017-08-22T04:18:08.709Z,11.9
2017-08-22T04:19:08.289Z,11.8
2017-08-22T04:20:07.475Z,11.8
2017-08-22T04:21:06.662Z,11.8
2017-08-22T04:22:05.729Z,11.8
2017-08-22T04:23:04.804Z,11.8
2017-08-22T04:24:04.017Z,11.8
2017-08-22T04:25:03.099Z,11.8
2017-08-22T04:26:02.798Z,11.8
2017-08-22T04:27:02.010Z,11.8
2017-08-22T04:28:00.992Z,11.7
2017-08-22T04:29:00.179Z,11.7
2017-08-22T04:29:59.371Z,11.7
2017-08-22T04:30:58.563Z,11.7
2017-08-22T04:31:57.635Z,11.7
2017-08-22T04:32:56.832Z,11.7
2017-08-22T04:33:56.019Z,11.7
2017-08-22T04:35:54.354Z,11.7
2017-08-22T04:36:53.809Z,11.7
2017-08-22T04:37:52.904Z,11.7
2017-08-22T04:38:23.409Z,11.7
2017-08-22T04:38:53.684Z,11.7
2017-08-22T04:39:51.360Z,11.7
2017-08-22T04:40:50.584Z,11.7
2017-08-22T04:41:49.854Z,11.7
2017-08-22T04:42:48.935Z,11.7
2017-08-22T04:43:48.011Z,11.7
2017-08-22T04:44:47.711Z,11.7
2017-08-22T04:45:46.789Z,11.7
2017-08-22T04:46:45.979Z,11.7
2017-08-22T04:47:45.060Z,11.7
2017-08-22T04:48:44.138Z,11.7
2017-08-22T04:49:43.713Z,11.8
2017-08-22T04:50:42.895Z,11.8
2017-08-22T04:52:40.967Z,11.7
2017-08-22T04:53:40.160Z,11.7
2017-08-22T04:54:39.733Z,11.7
2017-08-22T04:55:38.692Z,11.7
2017-08-22T04:56:37.779Z,11.7
2017-08-22T04:57:36.986Z,11.8
2017-08-22T04:58:36.163Z,11.8
2017-08-22T04:59:35.620Z,11.8
2017-08-22T05:00:34.815Z,11.8
2017-08-22T05:01:34.011Z,11.8
2017-08-22T05:02:33.092Z,11.8
2017-08-22T05:03:32.298Z,11.8
2017-08-22T05:04:31.483Z,11.8
2017-08-22T05:05:30.678Z,11.9
2017-08-22T05:06:29.744Z,11.9
2017-08-22T05:07:29.100Z,11.9
2017-08-22T05:08:28.178Z,11.9
2017-08-22T05:09:27.372Z,11.9
2017-08-22T05:10:26.561Z,11.9
2017-08-22T05:11:25.755Z,11.9
2017-08-22T05:12:25.337Z,11.9
2017-08-22T05:13:24.302Z,12
2017-08-22T05:14:23.372Z,12
2017-08-22T05:15:22.958Z,12
2017-08-22T05:16:22.153Z,12
2017-08-22T05:17:21.345Z,12
2017-08-22T05:18:20.424Z,12
2017-08-22T05:19:19.497Z,12
2017-08-22T05:21:17.964Z,12
2017-08-22T05:22:17.057Z,12.1
2017-08-22T05:24:15.639Z,12.2
2017-08-22T05:25:14.845Z,12.1
2017-08-22T05:26:14.037Z,12.1
2017-08-22T05:27:13.239Z,12.1
2017-08-22T05:28:12.319Z,12.1
2017-08-22T05:29:11.530Z,12.1
2017-08-22T05:30:11.111Z,12.1
2017-08-22T05:30:41.638Z,12.1
2017-08-22T05:32:09.518Z,12.2
2017-08-22T05:33:08.710Z,12.2
2017-08-22T05:34:07.887Z,12.2
2017-08-22T05:36:05.859Z,12.2
2017-08-22T05:37:05.322Z,12.2
2017-08-22T05:38:04.511Z,12.2
2017-08-22T05:39:03.697Z,12.2
2017-08-22T05:40:02.797Z,12.2
2017-08-22T05:41:02.149Z,12.2
2017-08-22T05:42:00.871Z,12.2
2017-08-22T05:43:59.966Z,12.2
2017-08-22T05:45:58.031Z,12.3
2017-08-22T05:46:57.212Z,12.3
2017-08-22T05:47:56.295Z,12.3
2017-08-22T05:48:55.996Z,12.3
2017-08-22T05:49:55.182Z,12.3
2017-08-22T05:50:54.372Z,12.4
2017-08-22T05:51:53.592Z,12.4
2017-08-22T05:52:52.657Z,12.4
2017-08-22T05:53:51.744Z,12.4
2017-08-22T05:54:50.930Z,12.5
2017-08-22T05:55:50.132Z,12.5
2017-08-22T05:56:49.211Z,12.5
2017-08-22T05:57:48.661Z,12.5
2017-08-22T05:58:47.729Z,12.5
2017-08-22T05:59:46.925Z,12.5
2017-08-22T06:00:46.126Z,12.5
2017-08-22T06:01:45.331Z,12.5
2017-08-22T06:02:44.922Z,12.6
2017-08-22T06:03:44.112Z,12.6
2017-08-22T06:04:43.179Z,12.6
2017-08-22T06:05:42.022Z,12.7
2017-08-22T06:06:41.720Z,12.7
2017-08-22T06:07:40.798Z,12.7
2017-08-22T06:08:39.995Z,12.7
2017-08-22T06:09:39.060Z,12.7
2017-08-22T06:10:38.269Z,12.8
2017-08-22T06:11:37.354Z,12.8
2017-08-22T06:12:37.062Z,12.9
2017-08-22T06:13:36.261Z,12.8
2017-08-22T06:14:35.216Z,12.9
2017-08-22T06:15:34.418Z,12.9
2017-08-22T06:16:33.489Z,13
2017-08-22T06:17:32.694Z,13
2017-08-22T06:18:31.894Z,13
2017-08-22T06:19:31.095Z,13.1
2017-08-22T06:20:30.288Z,13.1
2017-08-22T06:21:29.482Z,13.1
2017-08-22T06:22:29.177Z,13.1
2017-08-22T06:23:28.353Z,13.1
2017-08-22T06:25:26.532Z,13.2
2017-08-22T06:26:25.760Z,13.2
2017-08-22T06:27:24.837Z,13.3
2017-08-22T06:28:24.295Z,13.3
2017-08-22T06:29:23.358Z,13.3
2017-08-22T06:30:22.427Z,13.3
2017-08-22T06:32:21.008Z,13.3
2017-08-22T06:33:20.200Z,13.4
2017-08-22T06:34:19.400Z,13.4
2017-08-22T06:35:18.618Z,13.4
2017-08-22T06:36:17.700Z,13.4
2017-08-22T06:37:17.278Z,13.4
2017-08-22T06:38:16.499Z,13.4
2017-08-22T06:39:15.693Z,13.4
2017-08-22T06:40:14.879Z,13.4
2017-08-22T06:41:13.979Z,13.4
2017-08-22T06:42:13.055Z,13.4
2017-08-22T06:43:12.751Z,13.4
2017-08-22T06:44:11.931Z,13.5
2017-08-22T06:45:11.014Z,13.5
2017-08-22T06:46:10.213Z,13.4
2017-08-22T06:47:09.418Z,13.4
2017-08-22T06:48:08.488Z,13.5
2017-08-22T06:49:07.557Z,13.4
2017-08-22T06:50:07.289Z,13.5
2017-08-22T06:51:06.361Z,13.5
2017-08-22T06:52:05.560Z,13.5
2017-08-22T06:53:04.404Z,13.5
2017-08-22T06:54:04.092Z,13.6
2017-08-22T06:55:02.926Z,13.6
2017-08-22T06:56:02.612Z,13.6
2017-08-22T06:56:33.120Z,13.6
2017-08-22T06:57:03.389Z,13.6
2017-08-22T06:57:33.780Z,13.6
2017-08-22T06:59:00.156Z,13.7
2017-08-22T06:59:59.354Z,13.7
2017-08-22T07:00:58.560Z,13.7
2017-08-22T07:01:57.743Z,13.7
2017-08-22T07:02:56.939Z,13.7
2017-08-22T07:03:56.016Z,13.8
2017-08-22T07:04:55.212Z,13.8
2017-08-22T07:05:54.796Z,13.9
2017-08-22T07:06:53.878Z,13.9
2017-08-22T07:07:24.266Z,13.9
2017-08-22T07:07:54.665Z,13.9
2017-08-22T07:08:52.241Z,14
2017-08-22T07:09:51.438Z,14
2017-08-22T07:10:50.902Z,14
2017-08-22T07:11:50.093Z,14
2017-08-22T07:12:49.046Z,14
2017-08-22T07:13:48.502Z,14
2017-08-22T07:15:47.112Z,14.1
2017-08-22T07:17:45.071Z,14.1
2017-08-22T07:19:44.038Z,14.1
2017-08-22T07:20:43.113Z,14.1
2017-08-22T07:21:42.192Z,14.1
2017-08-22T07:22:41.765Z,14.2
2017-08-22T07:23:40.962Z,14.2
2017-08-22T07:24:40.144Z,14.2
2017-08-22T07:25:39.210Z,14.2
2017-08-22T07:26:38.783Z,14.2
2017-08-22T07:27:37.861Z,14.2
2017-08-22T07:29:36.744Z,14.3
2017-08-22T07:30:35.312Z,14.3
2017-08-22T07:31:34.500Z,14.3
2017-08-22T07:32:34.103Z,14.3
2017-08-22T07:34:32.706Z,14.3
2017-08-22T07:35:31.899Z,14.4
2017-08-22T07:36:30.854Z,14.4
2017-08-22T07:37:30.045Z,14.4
2017-08-22T07:38:29.230Z,14.5
2017-08-22T07:39:28.416Z,14.5
2017-08-22T07:40:28.112Z,14.6
2017-08-22T07:41:27.303Z,14.6
2017-08-22T07:42:26.510Z,14.6
2017-08-22T07:43:25.572Z,14.7
2017-08-22T07:44:24.779Z,14.7
2017-08-22T07:45:23.851Z,14.7
2017-08-22T07:46:23.420Z,14.7
2017-08-22T07:46:53.918Z,14.7
2017-08-22T07:47:24.303Z,14.8
2017-08-22T07:47:55.085Z,14.8
2017-08-22T07:49:20.827Z,14.8
2017-08-22T07:50:20.528Z,14.8
2017-08-22T07:51:19.725Z,14.8
2017-08-22T07:52:18.925Z,14.9
2017-08-22T07:53:18.112Z,14.9
2017-08-22T07:54:17.092Z,14.9
2017-08-22T07:55:16.797Z,14.9
2017-08-22T07:56:15.931Z,15
2017-08-22T07:57:15.130Z,15
2017-08-22T07:58:14.204Z,15.1
2017-08-22T07:59:13.551Z,15.1
2017-08-22T08:00:12.632Z,15.2
2017-08-22T08:01:12.328Z,15.2
2017-08-22T08:02:11.536Z,15.3
2017-08-22T08:03:10.733Z,15.3
2017-08-22T08:04:09.676Z,15.3
2017-08-22T08:05:09.257Z,15.4
2017-08-22T08:08:06.995Z,15.4
2017-08-22T08:09:06.062Z,15.4
2017-08-22T08:10:05.266Z,15.4
2017-08-22T08:11:04.724Z,15.4
2017-08-22T08:12:03.682Z,15.4
2017-08-22T08:13:03.036Z,15.5
2017-08-22T08:14:02.376Z,15.5
2017-08-22T08:15:01.579Z,15.5
2017-08-22T08:16:00.764Z,15.5
2017-08-22T08:16:59.968Z,15.6
2017-08-22T08:17:59.552Z,15.6
2017-08-22T08:18:58.627Z,15.6
2017-08-22T08:19:57.716Z,15.7
2017-08-22T08:20:57.423Z,15.7
2017-08-22T08:21:56.499Z,15.8
2017-08-22T08:22:55.453Z,15.9
2017-08-22T08:23:55.047Z,15.9
2017-08-22T08:24:54.246Z,15.9
2017-08-22T08:25:53.447Z,16
2017-08-22T08:26:52.912Z,16
2017-08-22T08:27:52.096Z,16
2017-08-22T08:28:51.182Z,16
2017-08-22T08:29:50.521Z,16
2017-08-22T08:30:49.987Z,16
2017-08-22T08:31:48.940Z,16
2017-08-22T08:32:48.524Z,16
2017-08-22T08:33:47.723Z,16
2017-08-22T08:35:46.348Z,16
2017-08-22T08:36:45.421Z,16
2017-08-22T08:37:44.882Z,16
2017-08-22T08:38:43.957Z,16
2017-08-22T08:39:43.152Z,16
2017-08-22T08:40:42.735Z,16
2017-08-22T08:41:41.811Z,16
2017-08-22T08:42:41.019Z,16
2017-08-22T08:43:40.205Z,16.1
2017-08-22T08:44:39.784Z,16.1
2017-08-22T08:45:38.975Z,16.1
2017-08-22T08:46:38.047Z,16.1
2017-08-22T08:47:37.770Z,16.1
2017-08-22T08:48:36.869Z,16.2
2017-08-22T08:49:35.839Z,16.2
2017-08-22T08:50:35.422Z,16.3
2017-08-22T08:51:34.604Z,16.3
2017-08-22T08:52:33.680Z,16.3
2017-08-22T08:53:33.377Z,16.4
2017-08-22T08:55:31.962Z,16.5
2017-08-22T08:56:31.028Z,16.5
2017-08-22T08:57:29.977Z,16.5
2017-08-22T08:58:29.674Z,16.5
2017-08-22T08:59:28.880Z,16.6
2017-08-22T09:00:28.387Z,16.6
2017-08-22T09:01:27.457Z,16.6
2017-08-22T09:02:26.408Z,16.6
2017-08-22T09:03:25.986Z,16.7
2017-08-22T09:04:24.951Z,16.8
2017-08-22T09:05:24.672Z,16.7
2017-08-22T09:06:23.638Z,16.7
2017-08-22T09:08:22.595Z,16.7
2017-08-22T09:09:21.682Z,16.8
2017-08-22T09:10:20.874Z,16.8
2017-08-22T09:11:20.460Z,16.8
2017-08-22T09:12:19.529Z,16.8
2017-08-22T09:13:19.106Z,16.8
2017-08-22T09:14:18.295Z,16.8
2017-08-22T09:15:17.496Z,16.8
2017-08-22T09:16:16.579Z,16.8
2017-08-22T09:17:16.280Z,16.9
2017-08-22T09:18:15.241Z,16.9
2017-08-22T09:19:14.821Z,16.9
2017-08-22T09:20:14.025Z,16.9
2017-08-22T09:21:13.105Z,16.9
2017-08-22T09:22:12.729Z,17
2017-08-22T09:23:11.795Z,17
2017-08-22T09:24:11.374Z,17
2017-08-22T09:25:10.462Z,17
2017-08-22T09:25:40.972Z,17
2017-08-22T09:26:11.399Z,17
2017-08-22T09:26:41.788Z,17
2017-08-22T09:27:12.293Z,17
2017-08-22T09:28:08.482Z,17.1
2017-08-22T09:29:07.558Z,17.1
2017-08-22T09:30:06.754Z,17.1
2017-08-22T09:31:06.464Z,17.2
2017-08-22T09:32:05.546Z,17.1
2017-08-22T09:33:05.004Z,17.1
2017-08-22T09:34:04.061Z,17
2017-08-22T09:35:03.273Z,17
2017-08-22T09:36:02.960Z,17
2017-08-22T09:37:01.917Z,17
2017-08-22T09:38:01.101Z,17
2017-08-22T09:39:00.805Z,16.9
2017-08-22T09:39:59.784Z,16.8
2017-08-22T09:40:59.248Z,16.8
2017-08-22T09:41:58.323Z,16.8
2017-08-22T09:42:57.792Z,16.9
2017-08-22T09:44:56.256Z,17
2017-08-22T09:45:55.827Z,17
2017-08-22T09:46:54.894Z,17
2017-08-22T09:47:54.350Z,16.9
2017-08-22T09:48:53.549Z,17
2017-08-22T09:49:53.013Z,17
2017-08-22T09:50:52.210Z,17.1
2017-08-22T09:51:51.288Z,17.1
2017-08-22T09:52:50.876Z,17.1
2017-08-22T09:53:49.834Z,17.1
2017-08-22T09:54:49.423Z,17.2
2017-08-22T09:55:48.993Z,17.2
2017-08-22T09:56:47.921Z,17.2
2017-08-22T09:57:47.380Z,17.2
2017-08-22T09:58:46.574Z,17.1
2017-08-22T09:59:46.269Z,17.1
2017-08-22T10:00:45.352Z,17.1
2017-08-22T10:01:44.305Z,17.1
2017-08-22T10:02:44.163Z,17.1
2017-08-22T10:03:43.358Z,17.1
2017-08-22T10:04:42.542Z,17.1
2017-08-22T10:05:41.744Z,17
2017-08-22T10:06:41.437Z,17
2017-08-22T10:07:40.633Z,17
2017-08-22T10:08:39.829Z,17
2017-08-22T10:09:39.022Z,17
2017-08-22T10:10:38.213Z,17.1
2017-08-22T10:12:37.184Z,17.2
2017-08-22T10:13:36.373Z,17.2
2017-08-22T10:14:35.452Z,17.2
2017-08-22T10:16:34.544Z,17.2
2017-08-22T10:17:33.760Z,17.2
2017-08-22T10:18:32.833Z,17.2
2017-08-22T10:19:32.023Z,17.2
2017-08-22T10:20:31.494Z,17.2
2017-08-22T10:21:31.075Z,17.1
2017-08-22T10:22:30.037Z,17.1
2017-08-22T10:23:29.613Z,17.1
2017-08-22T10:24:28.585Z,17.1
2017-08-22T10:25:28.050Z,17.1
2017-08-22T10:27:26.515Z,17.1
2017-08-22T10:28:26.210Z,17.1
2017-08-22T10:29:25.408Z,17.1
2017-08-22T10:30:24.611Z,17.1
2017-08-22T10:31:23.819Z,17.1
2017-08-22T10:32:23.516Z,17.1
2017-08-22T10:33:22.598Z,17.1
2017-08-22T10:34:21.543Z,17.1
2017-08-22T10:35:21.240Z,17.2
2017-08-22T10:36:20.447Z,17.1
2017-08-22T10:37:19.643Z,17.1
2017-08-22T10:38:19.343Z,17.2
2017-08-22T10:39:18.437Z,17.2
2017-08-22T10:40:17.623Z,17.2
2017-08-22T10:41:17.329Z,17.3
2017-08-22T10:42:16.411Z,17.3
2017-08-22T10:43:15.633Z,17.4
2017-08-22T10:44:14.820Z,17.4
2017-08-22T10:45:14.276Z,17.5
2017-08-22T10:46:13.470Z,17.5
2017-08-22T10:47:13.043Z,17.5
2017-08-22T10:48:12.512Z,17.6
2017-08-22T10:49:11.707Z,17.7
2017-08-22T10:50:10.781Z,17.7
2017-08-22T10:51:10.351Z,17.7
2017-08-22T10:52:09.427Z,17.8
2017-08-22T10:53:09.130Z,17.8
2017-08-22T10:54:08.343Z,17.7
2017-08-22T10:55:07.453Z,17.8
2017-08-22T10:56:06.902Z,17.8
2017-08-22T10:57:05.869Z,17.7
2017-08-22T10:58:05.328Z,17.8
2017-08-22T10:59:04.847Z,17.8
2017-08-22T11:00:03.918Z,17.8
2017-08-22T11:01:03.155Z,17.8
2017-08-22T11:02:02.737Z,17.9
2017-08-22T11:03:01.945Z,17.8
2017-08-22T11:04:01.531Z,17.8
2017-08-22T11:05:00.610Z,17.8
2017-08-22T11:06:00.186Z,17.8
2017-08-22T11:06:59.253Z,17.8
2017-08-22T11:07:58.944Z,17.9
2017-08-22T11:08:57.908Z,17.9
2017-08-22T11:09:57.493Z,17.9
2017-08-22T11:10:56.588Z,17.9
2017-08-22T11:11:55.792Z,17.9
2017-08-22T11:12:55.365Z,17.9
2017-08-22T11:13:54.330Z,18
2017-08-22T11:14:54.018Z,18
2017-08-22T11:15:53.220Z,18
2017-08-22T11:16:52.418Z,18
2017-08-22T11:17:52.128Z,18
2017-08-22T11:18:51.329Z,17.9
2017-08-22T11:19:50.528Z,18
2017-08-22T11:20:49.721Z,18.1
2017-08-22T11:21:49.408Z,18.1
2017-08-22T11:22:48.604Z,18
2017-08-22T11:23:47.792Z,18
2017-08-22T11:24:47.479Z,18.1
2017-08-22T11:25:46.542Z,18.1
2017-08-22T11:27:45.018Z,18
2017-08-22T11:28:44.610Z,18.1
2017-08-22T11:29:43.552Z,18.1
2017-08-22T11:31:42.540Z,18.3
2017-08-22T11:32:42.123Z,18.4
2017-08-22T11:33:41.200Z,18.4
2017-08-22T11:34:40.395Z,18.5
2017-08-22T11:35:40.108Z,18.5
2017-08-22T11:36:39.186Z,18.5
2017-08-22T11:37:38.263Z,18.5
2017-08-22T11:38:38.101Z,18.4
2017-08-22T11:40:36.565Z,18.4
2017-08-22T11:41:35.759Z,18.3
2017-08-22T11:43:34.338Z,18.1
2017-08-22T11:44:33.794Z,18.1
2017-08-22T11:45:33.495Z,18.1
2017-08-22T11:46:32.565Z,18
2017-08-22T11:47:32.020Z,18
2017-08-22T11:48:31.093Z,18
2017-08-22T11:49:30.553Z,18
2017-08-22T11:50:29.751Z,18
2017-08-22T11:51:29.329Z,18.1
2017-08-22T11:52:28.408Z,18.1
2017-08-22T11:53:27.997Z,18.2
2017-08-22T11:54:26.954Z,18.3
2017-08-22T11:55:26.538Z,18.3
2017-08-22T11:56:25.721Z,18.3
2017-08-22T11:57:25.412Z,18.4
2017-08-22T11:58:24.592Z,18.4
2017-08-22T11:59:23.794Z,18.4
2017-08-22T12:01:22.881Z,18.5
2017-08-22T12:02:21.943Z,18.6
2017-08-22T12:03:21.131Z,18.8
2017-08-22T12:04:20.718Z,18.8
2017-08-22T12:05:19.907Z,18.8
2017-08-22T12:06:19.160Z,18.7
2017-08-22T12:07:18.842Z,18.7
2017-08-22T12:08:18.035Z,18.8
2017-08-22T12:09:17.242Z,19
2017-08-22T12:10:16.929Z,19.1
2017-08-22T12:11:15.998Z,19.1
2017-08-22T12:12:15.459Z,19.1
2017-08-22T12:13:14.681Z,19
2017-08-22T12:14:13.876Z,18.9
2017-08-22T12:15:13.584Z,18.8
2017-08-22T12:16:12.784Z,18.9
2017-08-22T12:17:12.251Z,19
2017-08-22T12:18:11.329Z,19.2
2017-08-22T12:19:11.016Z,19.2
2017-08-22T12:20:09.853Z,19.2
2017-08-22T12:22:08.819Z,19.2
2017-08-22T12:24:07.398Z,19.3
2017-08-22T12:25:06.856Z,19.3
2017-08-22T12:27:05.826Z,19.5
2017-08-22T12:28:05.014Z,19.6
2017-08-22T12:29:04.478Z,19.6
2017-08-22T12:30:03.548Z,19.6
2017-08-22T12:31:02.748Z,19.8
2017-08-22T12:32:02.327Z,19.7
2017-08-22T12:33:01.521Z,19.8
2017-08-22T12:34:01.213Z,19.9
2017-08-22T12:35:00.430Z,20.1
2017-08-22T12:35:59.636Z,20.2
2017-08-22T12:36:59.218Z,20.3
2017-08-22T12:37:58.421Z,20.3
2017-08-22T12:38:57.624Z,20.4
2017-08-22T12:40:56.713Z,20.4
2017-08-22T12:41:55.904Z,20.3
2017-08-22T12:42:55.490Z,20.2
2017-08-22T12:43:25.890Z,20.2
2017-08-22T12:44:54.158Z,20
2017-08-22T12:45:53.629Z,19.8
2017-08-22T12:48:51.595Z,19.5
2017-08-22T12:50:50.161Z,19.6
2017-08-22T12:51:49.231Z,19.5
2017-08-22T12:52:48.810Z,19.4
2017-08-22T12:53:48.402Z,19.4
2017-08-22T12:54:47.600Z,19.4
2017-08-22T12:55:47.198Z,19.4
2017-08-22T12:56:46.384Z,19.3
2017-08-22T12:58:44.855Z,19
2017-08-22T12:59:44.317Z,18.9
2017-08-22T13:00:43.904Z,18.9
2017-08-22T13:01:43.093Z,18.9
2017-08-22T13:02:42.679Z,19
2017-08-22T13:03:41.875Z,19.2
2017-08-22T13:04:41.586Z,19.3
2017-08-22T13:05:40.797Z,19.5
2017-08-22T13:06:39.879Z,19.6
2017-08-22T13:07:39.579Z,19.6
2017-08-22T13:08:38.530Z,19.7
2017-08-22T13:09:38.105Z,19.5
2017-08-22T13:10:37.558Z,19.4
2017-08-22T13:11:37.142Z,19.4
2017-08-22T13:12:36.341Z,19.6
2017-08-22T13:13:35.421Z,19.6
2017-08-22T13:14:34.997Z,19.7
2017-08-22T13:15:34.197Z,19.8
2017-08-22T13:16:33.902Z,19.8
2017-08-22T13:17:32.972Z,19.9
2017-08-22T13:18:32.214Z,20.1
2017-08-22T13:19:31.809Z,20.1
2017-08-22T13:20:31.014Z,20.1
2017-08-22T13:21:30.720Z,20.2
2017-08-22T13:22:29.786Z,20.2
2017-08-22T13:23:29.379Z,20.2
2017-08-22T13:24:28.565Z,19.8
2017-08-22T13:25:28.024Z,19.7
2017-08-22T13:26:27.209Z,19.8
2017-08-22T13:27:26.788Z,19.6
2017-08-22T13:28:26.367Z,19.7
2017-08-22T13:29:25.566Z,19.8
2017-08-22T13:30:25.147Z,19.9
2017-08-22T13:31:24.226Z,19.9
2017-08-22T13:32:23.808Z,20.1
2017-08-22T13:33:23.000Z,20.2
2017-08-22T13:34:22.203Z,20.3
2017-08-22T13:35:21.896Z,20.4
2017-08-22T13:36:21.105Z,20.5
2017-08-22T13:36:51.487Z,20.5
2017-08-22T13:38:19.743Z,20.3
2017-08-22T13:39:19.322Z,20.3
2017-08-22T13:40:18.670Z,20.3
2017-08-22T13:41:17.738Z,20.3
2017-08-22T13:42:17.308Z,20.5
2017-08-22T13:43:16.887Z,20.6
2017-08-22T13:44:16.098Z,20.6
2017-08-22T13:45:15.664Z,20.7
2017-08-22T13:46:14.859Z,20.5
2017-08-22T13:48:13.949Z,20.3
2017-08-22T13:49:13.147Z,20.3
2017-08-22T13:50:12.356Z,20.5